LES MASIES DE RODA (Osona)





Hora UTC 23:35
Temperatura 9.6 ºC
Sòl 15 cm 8.0 ºC
Subsòl 10 cm 9.0 ºC
Humitat 51.2 %
Pressió 1009.1 hPa
Pluja 0.0 mm
Velocitat vent 7.7 km/h
Direcció vent ESE
Radiació solar 0.1 W/m²

Dades diàries 2024-02-27



Hora UTC (hivern +1h; estiu +2h)
Temperatura (ºC) Humitat (%) Pressió (hPa) Velocitat vent (km/h) Precipitació (mm) Radiació solar (W/m²)
Hora UTC Aire Sòl 15 cm Subsòl 10 cm Humitat Pressió Vel. Dir. Vel. Max Dir. Intent. màx 5 min. Rad. Sol.
00:05 5.2 4.2 9.0 93.2 1001.8 2.0 NE 2.0 N 0.0 0.1
00:10 5.2 4.2 8.9 93.5 1001.8 2.7 NE 3.5 NE 0.0 0.1
00:15 5.2 4.3 8.9 93.5 1001.8 1.8 NNE 4.2 N 0.0 0.1
00:20 5.2 4.2 8.9 93.2 1001.8 0.6 N 2.8 N 0.0 0.1
00:25 5.2 4.2 8.9 93.3 1001.8 2.2 E 2.8 E 0.0 0.1
00:30 5.2 4.3 8.8 93.3 1001.9 3.4 ESE 5.3 ESE 0.0 0.1
00:35 5.3 4.4 8.8 93.1 1001.9 3.4 ESE 5.0 SE 0.0 0.1
00:40 5.3 4.4 8.8 93.2 1001.9 2.9 ESE 3.9 ESE 0.0 0.1
00:45 5.3 4.4 8.8 93.1 1001.9 2.7 ESE 5.0 SE 0.0 0.1
00:50 5.3 4.3 8.7 92.8 1001.9 1.9 ESE 3.5 E 0.0 0.1
00:55 5.3 4.2 8.7 92.7 1002.0 0.0 NNE 0.0 ESE 0.0 0.1
01:00 5.2 4.1 8.7 92.5 1002.0 3.6 SE 6.4 SE 0.0 0.1
01:05 5.1 4.1 8.7 92.4 1002.0 2.8 SE 4.2 SE 0.0 0.1
01:10 5.1 4.0 8.6 92.4 1002.0 1.6 SSE 3.5 SSE 0.0 0.1
01:15 5.1 3.9 8.6 92.3 1002.1 0.0 NNE 0.0 S 0.0 0.1
01:20 5.0 3.8 8.6 92.4 1002.2 0.0 NNE 0.0 S 0.0 0.1
01:25 5.0 3.7 8.6 92.9 1002.3 0.3 NE 2.1 NE 0.0 0.1
01:30 4.9 3.8 8.5 93.1 1002.3 1.2 ESE 2.8 ESE 0.0 0.1
01:35 4.9 3.8 8.5 93.3 1002.4 0.2 ESE 2.5 ESE 0.0 0.1
01:40 4.9 3.9 8.5 93.3 1002.4 0.0 NNE 0.0 ENE 0.0 0.1
01:45 4.8 3.7 8.4 93.2 1002.4 2.4 WNW 4.2 WNW 0.0 0.2
01:50 4.7 3.6 8.4 93.6 1002.5 0.0 NNE 0.0 WNW 0.0 0.1
01:55 4.7 3.5 8.4 93.8 1002.5 0.0 NNE 0.0 N 0.0 0.1
02:00 4.7 3.3 8.4 93.7 1002.5 0.0 NNE 0.0 N 0.0 0.1
02:05 4.6 3.1 8.3 93.9 1002.5 0.0 NNE 0.0 NW 0.0 0.1
02:10 4.6 3.0 8.3 94.0 1002.6 0.0 NNE 0.0 NW 0.0 0.1
02:15 4.5 2.9 8.2 94.1 1002.5 0.0 NNE 0.0 NW 0.0 0.1
02:20 4.4 2.8 8.2 94.1 1002.6 1.1 E 2.8 E 0.0 0.1
02:25 4.2 2.6 8.1 94.1 1002.7 1.5 E 2.1 E 0.0 0.1
02:30 4.2 2.6 8.1 94.3 1002.7 2.0 E 3.2 E 0.0 0.1
02:35 4.2 2.6 8.0 94.4 1002.7 1.6 E 2.5 E 0.0 0.1
02:40 4.0 2.5 8.0 94.2 1002.7 0.0 NNE 0.0 E 0.0 0.1
02:45 3.9 2.4 7.9 94.3 1002.8 0.0 NNE 0.0 E 0.0 0.1
02:50 3.9 2.4 7.9 94.4 1002.7 0.6 SSE 2.5 SSE 0.0 0.2
02:55 3.9 2.4 7.8 94.5 1002.9 0.0 NNE 0.0 SSE 0.0 0.1
03:00 3.8 2.5 7.8 94.4 1002.9 0.8 E 2.5 NE 0.0 0.1
03:05 3.9 2.6 7.8 94.6 1002.9 2.1 E 3.2 E 0.0 0.1
03:10 3.9 2.8 7.7 94.6 1002.9 0.7 NNE 2.5 NNE 0.0 0.1
03:15 4.0 2.9 7.7 94.6 1002.9 0.7 NNE 2.1 NNE 0.0 0.1
03:20 3.9 2.8 7.7 94.5 1003.0 0.0 NNE 0.0 NNE 0.0 0.1
03:25 3.8 2.6 7.7 94.4 1003.1 2.3 NNW 4.6 NNW 0.0 0.1
03:30 3.9 2.7 7.7 94.6 1003.1 0.6 ENE 2.1 NNW 0.0 0.1
03:35 3.9 2.8 7.6 94.6 1003.1 0.4 ENE 2.1 ENE 0.0 0.1
03:40 3.9 2.6 7.6 94.6 1003.2 0.2 ENE 1.8 ENE 0.0 0.1
03:45 3.9 2.5 7.6 94.6 1003.2 0.0 NNE 0.0 ENE 0.0 0.2
03:50 3.8 2.5 7.6 94.5 1003.3 0.0 NNE 0.0 ENE 0.0 0.1
03:55 3.9 2.6 7.5 94.5 1003.3 1.1 ESE 4.2 ESE 0.0 0.1
04:00 4.0 2.8 7.5 94.5 1003.3 3.7 ESE 5.0 ESE 0.0 0.1
04:05 4.0 3.0 7.5 94.3 1003.5 3.9 E 6.0 ESE 0.0 0.1
04:10 3.9 3.2 7.5 94.2 1003.5 3.2 ESE 4.6 ESE 0.0 0.1
04:15 4.0 3.4 7.5 94.2 1003.5 2.6 ESE 3.9 SE 0.0 0.1
04:20 4.1 3.4 7.5 94.1 1003.6 2.2 SE 4.6 SE 0.0 0.1
04:25 4.1 3.5 7.5 94.1 1003.6 1.7 SSE 4.2 SE 0.0 0.1
04:30 4.2 3.4 7.5 94.0 1003.5 1.3 S 3.5 SSW 0.0 0.1
04:35 4.2 3.2 7.4 93.9 1003.6 1.1 SSW 3.2 SSW 0.0 0.1
04:40 4.1 2.8 7.4 93.7 1003.7 1.3 ENE 3.2 ENE 0.0 0.1
04:45 3.9 2.7 7.4 93.6 1003.8 1.7 ENE 3.2 ENE 0.0 0.1
04:50 3.8 2.6 7.4 93.7 1003.8 3.4 E 5.0 ESE 0.0 0.2
04:55 3.8 2.4 7.3 93.7 1003.9 1.4 E 4.2 E 0.0 0.1
05:00 3.7 2.2 7.3 93.7 1003.8 0.4 ENE 2.1 ENE 0.0 0.1
05:05 3.6 2.0 7.3 93.7 1004.0 2.1 NE 2.8 NE 0.0 0.1
05:10 3.4 1.9 7.2 93.7 1004.0 0.2 NE 2.1 NE 0.0 0.1
05:15 3.3 1.6 7.2 93.6 1004.0 0.0 NNE 0.0 NE 0.0 0.1
05:20 3.2 1.3 7.1 93.6 1004.1 0.0 NNE 0.0 NE 0.0 0.1
05:25 3.1 1.2 7.1 93.6 1004.0 0.8 SE 2.8 SSE 0.0 0.1
05:30 3.0 0.9 7.0 93.7 1004.1 2.0 E 4.6 E 0.0 0.1
05:35 2.9 1.0 7.0 93.7 1004.1 0.0 NNW 2.1 NNW 0.0 0.1
05:40 2.7 1.3 6.9 93.6 1004.2 1.3 NW 3.2 NW 0.0 0.1
05:45 2.7 1.5 6.9 93.7 1004.3 2.5 NNE 5.0 N 0.0 0.1
05:50 3.0 2.2 6.9 93.9 1004.4 2.7 NNE 4.6 0.0 0.1
05:55 3.1 2.5 6.9 93.8 1004.4 1.9 ENE 3.2 ENE 0.0 0.1
06:00 3.1 2.7 6.9 93.7 1004.4 0.0 ENE 1.4 ENE 0.0 0.1
06:05 3.2 2.7 6.9 93.6 1004.5 0.5 N 2.5 N 0.0 0.1
06:10 3.2 2.8 6.9 93.5 1004.5 0.2 N 2.1 N 0.0 0.1
06:15 3.3 2.9 6.9 93.4 1004.6 0.0 NNE 0.0 ENE 0.0 0.1
06:20 3.4 3.1 6.9 93.3 1004.6 0.0 NNE 0.0 ENE 0.0 0.2
06:25 3.5 3.2 6.9 93.2 1004.6 0.0 SSW 1.1 SSW 0.0 0.5
06:30 3.6 3.3 6.9 93.0 1004.6 1.4 W 3.9 W 0.0 0.9
06:35 3.6 3.3 6.9 92.9 1004.8 1.4 W 4.2 NW 0.0 1.3
06:40 3.7 3.4 6.9 92.8 1004.9 4.0 WNW 5.0 WNW 0.0 2.2
06:45 3.8 3.5 6.9 92.7 1004.9 2.0 W 5.0 W 0.0 4.1
06:50 3.8 3.5 6.9 92.6 1004.9 1.4 WSW 3.5 W 0.0 5.9
06:55 3.9 3.6 6.9 92.5 1004.9 2.7 SW 4.6 SW 0.0 6.8
07:00 3.9 3.7 7.0 92.4 1005.0 2.0 WNW 3.2 W 0.0 7.6
07:05 3.9 3.7 7.0 92.3 1005.1 1.4 WNW 2.5 WNW 0.0 8.0
07:10 4.0 3.7 7.0 92.2 1005.2 1.6 W 2.8 WSW 0.0 8.5
07:15 4.0 3.8 7.0 92.1 1005.2 0.6 NW 2.1 WNW 0.0 9.9
07:20 4.1 3.9 7.0 92.0 1005.3 1.8 WNW 3.5 WNW 0.0 11.1
07:25 4.1 3.9 7.0 91.9 1005.3 2.4 W 3.5 WNW 0.0 12.7
07:30 4.2 4.0 7.0 91.8 1005.4 0.1 WSW 1.8 WSW 0.0 17.7
07:35 4.3 4.1 7.0 91.7 1005.4 2.3 S 4.2 SSW 0.0 25.5
07:40 4.4 4.2 7.1 91.5 1005.4 2.5 SSW 3.9 SSW 0.0 21.7
07:45 4.5 4.4 7.1 91.3 1005.5 1.1 ESE 3.2 ESE 0.0 30.9
07:50 4.6 4.5 7.1 91.3 1005.6 3.9 WNW 5.3 WNW 0.0 35.5
07:55 4.6 4.6 7.1 91.2 1005.6 2.3 WNW 5.0 WNW 0.0 39.3
08:00 4.7 4.7 7.1 91.0 1005.7 0.3 W 3.5 W 0.0 48.4
08:05 4.7 4.8 7.1 90.8 1005.7 2.3 WNW 3.5 WNW 0.0 55.1
08:10 4.8 5.0 7.2 90.6 1005.8 0.0 WNW 1.4 WNW 0.0 56.1
08:15 4.9 5.1 7.2 90.5 1005.8 2.4 NW 3.5 NW 0.0 60.8
08:20 5.0 5.2 7.2 90.3 1005.8 0.4 S 2.5 SSW 0.0 57.4
08:25 5.0 5.3 7.3 89.9 1005.9 0.0 NNE 0.0 ESE 0.0 56.2
08:30 5.1 5.5 7.3 89.2 1005.9 0.5 ESE 3.2 SE 0.0 72.2
08:35 5.3 5.7 7.3 88.9 1006.0 0.5 NE 2.8 ENE 0.0 73.2
08:40 5.3 5.7 7.4 88.2 1006.1 1.2 E 4.6 E 0.0 63.4
08:45 5.4 5.8 7.4 88.0 1006.2 2.1 ENE 4.2 ESE 0.0 65.7
08:50 5.5 5.8 7.5 88.3 1006.1 0.1 W 1.8 WNW 0.0 71.7
08:55 5.6 5.8 7.5 88.3 1006.1 4.1 WNW 6.4 WNW 0.0 67.5
09:00 5.5 5.8 7.5 87.3 1006.2 1.0 WNW 4.6 WNW 0.0 70.6
09:05 5.6 6.1 7.6 87.4 1006.3 4.7 NW 7.4 NW 0.0 77.1
09:10 5.6 6.1 7.6 87.1 1006.4 2.9 WNW 7.1 WNW 0.0 77.7
09:15 5.7 6.2 7.6 87.7 1006.5 6.6 WNW 10.3 WNW 0.0 81.9
09:20 5.6 6.1 7.6 87.0 1006.6 5.5 WSW 9.2 W 0.0 86.0
09:25 5.7 6.2 7.7 87.4 1006.6 5.0 NNE 8.8 W 0.0 97.1
09:30 5.7 6.3 7.7 86.4 1006.6 5.2 N 7.8 N 0.0 124.3
09:35 5.7 6.7 7.7 86.3 1006.6 4.2 NE 6.7 ENE 0.0 141.4
09:40 5.8 7.0 7.8 87.0 1006.7 4.3 NNW 7.1 NNW 0.0 141.9
09:45 6.0 7.0 7.8 86.5 1006.7 2.3 NW 5.7 W 0.0 136.0
09:50 6.1 7.3 7.9 86.2 1006.8 1.3 ENE 5.0 NNW 0.0 128.8
09:55 6.2 7.4 7.9 86.4 1007.0 4.6 NNW 6.4 N 0.0 115.9
10:00 6.2 7.4 8.0 85.9 1007.1 5.2 N 9.2 NNE 0.0 132.4
10:05 6.2 7.5 8.0 85.7 1007.0 4.2 NNW 8.1 WNW 0.0 167.2
10:10 6.3 7.6 8.1 86.1 1007.1 7.2 WNW 9.9 WNW 0.0 160.7
10:15 6.3 7.8 8.1 85.2 1007.2 7.3 WNW 9.5 W 0.0 167.3
10:20 6.3 7.7 8.2 85.4 1007.2 4.7 WSW 9.2 WNW 0.0 227.6
10:25 6.6 8.3 8.2 84.8 1007.2 2.2 W 7.1 W 0.0 248.2
10:30 6.9 9.1 8.3 84.4 1007.2 4.6 WNW 7.8 W 0.0 279.3
10:35 7.0 9.4 8.4 83.6 1007.2 3.9 WNW 8.5 W 0.0 306.7
10:40 7.2 10.1 8.5 82.5 1007.3 3.2 WNW 10.3 WNW 0.0 295.2
10:45 7.3 9.9 8.7 82.5 1007.3 5.8 NW 9.9 WNW 0.0 280.1
10:50 7.4 10.4 8.8 82.9 1007.4 3.0 NW 6.7 NW 0.0 293.5
10:55 7.5 10.5 8.9 81.9 1007.3 4.3 N 9.5 NNW 0.0 268.8
11:00 7.4 10.7 9.0 79.7 1007.3 1.4 NE 3.5 NNE 0.0 341.2
11:05 7.4 10.1 9.1 80.0 1007.4 4.3 WSW 7.1 WSW 0.0 342.1
11:10 7.9 10.7 9.2 81.8 1007.3 4.7 WSW 7.1 SW 0.0 588.6
11:15 8.0 13.2 9.4 79.7 1007.4 6.3 ENE 11.7 ENE 0.0 693.1
11:20 7.6 14.1 9.8 79.9 1007.4 6.5 ENE 9.9 NE 0.0 631.4
11:25 7.7 14.9 10.1 80.1 1007.3 4.5 E 8.1 ENE 0.0 629.2
11:30 8.4 14.1 10.5 77.0 1007.3 3.7 ESE 7.4 E 0.0 632.3
11:35 8.8 15.4 10.8 75.8 1007.2 3.9 SE 8.5 SE 0.0 632.0
11:40 8.9 15.9 11.1 74.6 1007.2 3.6 ESE 9.2 ESE 0.0 639.4
11:45 9.5 14.9 11.4 73.5 1007.2 3.6 S 6.4 SSW 0.0 643.3
11:50 10.0 14.7 11.6 74.0 1007.2 3.5 WSW 6.4 W 0.0 644.6
11:55 10.3 15.6 11.8 74.2 1007.2 5.8 N 8.5 NNW 0.0 643.6
12:00 10.3 16.5 12.0 75.4 1007.3 4.8 NNW 9.2 NW 0.0 644.8
12:05 10.4 17.1 12.2 72.1 1007.2 2.3 NNE 6.4 NNW 0.0 649.0
12:10 10.1 17.8 12.5 72.4 1007.1 3.0 N 6.7 NNW 0.0 649.1
12:15 10.9 17.8 12.7 70.8 1007.0 2.7 SW 6.4 SW 0.0 651.0
12:20 11.7 16.9 13.0 69.3 1006.9 4.1 WSW 7.4 W 0.0 652.6
12:25 11.8 18.4 13.2 68.0 1007.0 2.9 NNE 6.4 N 0.0 653.0
12:30 12.1 19.5 13.4 67.6 1006.9 1.5 NNW 5.0 NNW 0.0 650.6
12:35 12.3 19.6 13.6 65.8 1006.8 2.3 E 5.7 ESE 0.0 652.9
12:40 12.2 20.3 13.8 65.9 1006.8 3.5 ENE 7.1 ENE 0.0 655.8
12:45 12.3 21.1 14.1 65.3 1006.8 1.9 N 6.4 NW 0.0 664.4
12:50 12.9 20.9 14.3 65.7 1006.7 4.2 WNW 7.4 NW 0.0 672.8
12:55 13.2 20.3 14.5 64.0 1006.6 4.0 WNW 7.1 WNW 0.0 673.9
13:00 13.2 21.3 14.7 63.3 1006.5 1.9 NE 3.9 ENE 0.0 642.7
13:05 13.5 22.2 14.8 62.2 1006.4 1.9 WNW 7.8 W 0.0 715.8
13:10 13.7 20.5 15.0 61.1 1006.4 5.1 NNW 9.5 NNW 0.0 422.2
13:15 13.1 18.4 15.1 62.3 1006.3 4.8 NE 9.2 NNE 0.0 212.2
13:20 12.7 17.3 15.0 63.6 1006.4 3.1 NE 5.0 NNE 0.0 143.5
13:25 12.7 15.8 14.9 63.7 1006.3 3.4 E 7.1 E 0.0 126.3
13:30 12.7 15.1 14.8 63.3 1006.3 3.6 ESE 6.0 ESE 0.0 171.9
13:35 12.8 15.1 14.7 60.8 1006.2 1.4 WNW 4.6 SW 0.0 199.7
13:40 12.9 14.9 14.6 61.3 1006.2 2.1 E 4.2 ENE 0.0 191.5
13:45 12.9 15.0 14.5 60.5 1006.1 0.9 NNW 2.8 NNW 0.0 169.1
13:50 13.1 14.6 14.4 62.8 1006.1 4.1 NNW 6.4 NNW 0.0 143.6
13:55 13.1 14.8 14.3 60.7 1006.1 2.4 NNE 4.6 NE 0.0 333.8
14:00 13.3 16.8 14.3 59.1 1006.1 4.0 NE 6.4 N 0.0 320.5
14:05 13.7 16.7 14.3 58.8 1006.1 1.4 NW 4.6 S 0.0 324.4
14:10 14.0 17.6 14.3 55.2 1006.1 3.3 S 5.0 SSW 0.0 560.9
14:15 14.7 21.0 14.4 53.7 1006.0 3.1 ESE 7.4 S 0.0 663.6
14:20 15.1 21.1 14.7 53.1 1006.1 1.9 NE 4.6 S 0.0 210.3
14:25 15.1 18.6 14.8 50.8 1006.1 1.3 ENE 3.9 N 0.0 164.3
14:30 14.9 18.1 14.8 51.7 1006.2 2.0 NE 3.9 NE 0.0 159.8
14:35 14.8 17.4 14.7 51.5 1006.1 1.8 SSE 4.6 SSE 0.0 159.8
14:40 14.7 17.0 14.7 49.8 1006.1 3.6 SE 6.4 SE 0.0 248.5
14:45 15.0 20.1 14.6 47.3 1006.0 4.0 ESE 7.1 ESE 0.0 645.7
14:50 15.5 22.2 14.7 45.5 1006.1 4.4 E 9.5 ESE 0.0 416.4
14:55 15.4 21.1 14.9 44.3 1006.1 6.5 E 10.6 ENE 0.0 295.2
15:00 15.4 20.0 15.0 42.8 1006.2 7.6 NE 14.5 ENE 0.0 286.7
15:05 15.5 18.1 15.0 39.4 1006.1 9.8 NE 23.3 NE 0.0 178.9
15:10 15.2 16.6 14.9 45.1 1006.3 6.8 NE 14.1 ENE 0.0 144.0
15:15 15.2 15.7 14.8 38.5 1006.2 15.3 NNW 29.7 NW 0.0 129.7
15:20 14.9 14.9 14.7 37.6 1006.3 16.0 NNW 28.6 NNW 0.0 135.9
15:25 14.5 13.8 14.5 38.5 1006.2 21.8 NNW 39.9 NNW 0.0 127.8
15:30 14.2 13.1 14.3 38.2 1006.3 23.6 NNW 41.3 NW 0.0 114.0
15:35 14.0 13.1 14.1 37.6 1006.3 21.1 NNW 32.8 N 0.0 134.8
15:40 14.0 13.7 13.9 38.8 1006.4 21.3 NNW 35.3 NNW 0.0 212.4
15:45 14.3 15.0 13.8 38.1 1006.4 21.8 NNW 39.9 NNW 0.0 281.1
15:50 14.4 15.5 13.7 37.5 1006.5 20.3 N 32.1 N 0.0 309.5
15:55 14.5 15.4 13.6 37.0 1006.6 20.9 N 39.5 NNW 0.0 251.0
16:00 14.5 15.3 13.6 37.2 1006.6 18.2 N 33.9 NNW 0.0 234.9
16:05 14.3 14.9 13.5 37.2 1006.6 22.3 NNW 39.5 NW 0.0 198.6
16:10 14.1 14.2 13.5 38.0 1006.6 18.8 NNW 30.0 NNW 0.0 128.3
16:15 13.8 13.4 13.4 38.1 1006.6 19.9 NNW 30.4 NNW 0.0 104.2
16:20 13.5 13.0 13.3 38.4 1006.5 19.1 NNW 27.9 NNW 0.0 99.1
16:25 13.4 12.8 13.2 38.6 1006.5 18.7 NNW 26.1 NNW 0.0 90.3
16:30 13.3 12.6 13.0 38.8 1006.6 19.7 NNW 30.4 NNW 0.0 78.0
16:35 13.1 12.3 12.9 39.3 1006.7 21.0 NNW 33.9 NNW 0.0 61.0
16:40 13.0 12.1 12.8 39.7 1006.8 16.6 NNW 27.5 NNW 0.0 47.5
16:45 12.9 11.6 12.7 39.4 1006.9 10.4 NW 17.7 NW 0.0 34.0
16:50 12.7 11.3 12.6 40.6 1006.9 10.3 NW 17.0 NNW 0.0 22.5
16:55 12.7 11.3 12.5 40.4 1006.8 13.5 NNW 21.2 NNW 0.0 18.2
17:00 12.6 11.1 12.4 40.6 1006.8 11.9 NNW 18.0 NW 0.0 15.3
17:05 12.5 10.9 12.3 41.5 1006.9 10.6 NNW 15.5 NNW 0.0 13.3
17:10 12.4 10.7 12.2 40.6 1006.9 11.6 NW 17.0 NNW 0.0 11.2
17:15 12.4 10.6 12.1 40.7 1006.9 11.2 NW 18.0 NW 0.0 8.2
17:20 12.2 10.3 12.0 42.4 1006.9 9.2 NW 15.2 WNW 0.0 7.0
17:25 12.1 10.0 11.9 42.4 1006.9 8.8 NW 13.1 NW 0.0 7.2
17:30 12.0 9.7 11.8 42.3 1007.0 7.3 NW 12.4 NW 0.0 3.9
17:35 11.8 9.4 11.8 43.5 1007.0 6.2 NW 8.5 NW 0.0 4.6
17:40 11.8 9.3 11.7 43.5 1007.0 9.0 NNW 19.8 N 0.0 4.8
17:45 11.9 9.7 11.6 42.3 1006.9 10.9 NNW 16.6 NNW 0.0 2.3
17:50 12.1 10.1 11.5 40.7 1007.0 11.6 NNW 23.0 NNW 0.0 0.4
17:55 12.3 10.6 11.5 39.3 1007.1 15.7 NNW 27.2 NNW 0.0 0.2
18:00 12.4 10.8 11.4 39.7 1007.2 15.0 NNW 24.7 NNW 0.0 0.1
18:05 12.5 11.1 11.4 38.9 1007.4 15.9 NNW 25.1 NW 0.0 0.1
18:10 12.4 10.9 11.3 39.7 1007.4 9.9 NNW 15.2 NNW 0.0 0.1
18:15 12.4 10.6 11.2 39.1 1007.4 10.2 NW 17.7 NW 0.0 0.1
18:20 12.4 10.6 11.2 39.0 1007.4 9.0 NW 16.2 NNW 0.0 0.1
18:25 12.3 10.3 11.1 39.4 1007.4 9.9 NNW 14.8 NNW 0.0 0.1
18:30 12.2 10.1 11.1 40.7 1007.4 7.6 NW 13.8 NNW 0.0 0.1
18:35 11.9 9.5 11.0 41.4 1007.5 4.4 NNW 6.7 NNW 0.0 0.1
18:40 11.7 9.1 10.9 43.4 1007.5 2.4 NE 4.6 ENE 0.0 0.1
18:45 11.4 8.7 10.9 45.4 1007.6 4.0 ESE 5.3 ESE 0.0 0.1
18:50 11.0 8.4 10.8 47.8 1007.7 4.1 ESE 6.0 ESE 0.0 0.1
18:55 10.7 8.2 10.7 50.0 1007.7 4.4 E 5.7 SE 0.0 0.1
19:00 10.4 8.0 10.7 51.8 1007.8 2.4 E 5.7 E 0.0 0.1
19:05 10.3 8.0 10.6 49.5 1007.9 5.9 ESE 8.5 ESE 0.0 0.1
19:10 10.3 8.0 10.6 50.8 1008.0 3.4 E 11.7 ENE 0.0 0.1
19:15 10.3 7.9 10.5 50.9 1008.1 6.1 ENE 11.7 ENE 0.0 0.1
19:20 10.3 8.1 10.4 50.3 1008.1 6.8 E 11.3 ENE 0.0 0.1
19:25 10.3 8.1 10.4 51.9 1008.2 5.9 E 8.8 ENE 0.0 0.1
19:30 10.1 8.1 10.4 54.2 1008.2 5.1 E 9.5 ENE 0.0 0.1
19:35 9.9 8.0 10.3 54.4 1008.3 2.4 NNE 5.3 NNW 0.0 0.1
19:40 10.0 7.9 10.3 52.1 1008.3 2.6 SE 5.3 S 0.0 0.1
19:45 10.1 7.9 10.2 54.0 1008.3 2.2 ENE 5.3 ESE 0.0 0.1
19:50 9.9 7.7 10.2 55.5 1008.2 1.7 NE 4.2 NNE 0.0 0.1
19:55 9.8 7.7 10.2 55.6 1008.3 2.8 N 5.0 N 0.0 0.1
20:00 9.8 7.8 10.1 54.7 1008.3 2.5 E 6.4 E 0.0 0.1
20:05 9.8 7.8 10.1 53.7 1008.4 3.2 ESE 6.7 SE 0.0 0.1
20:10 9.8 7.8 10.0 55.3 1008.6 3.4 W 8.8 WNW 0.0 0.1
20:15 9.7 7.7 10.0 57.1 1008.6 1.9 NE 7.8 NNE 0.0 0.1
20:20 9.5 7.7 10.0 60.2 1008.6 3.8 ENE 5.7 NE 0.0 0.1
20:25 9.3 7.7 9.9 59.5 1008.6 3.3 ENE 5.3 ENE 0.0 0.1
20:30 9.2 7.6 9.9 61.1 1008.7 3.2 NNE 5.3 N 0.0 0.1
20:35 9.1 7.5 9.9 61.8 1008.7 4.5 NE 8.5 ENE 0.0 0.1
20:40 9.1 7.5 9.9 60.9 1008.7 6.0 ENE 9.9 ENE 0.0 0.1
20:45 9.1 7.5 9.8 60.0 1008.7 3.5 NE 6.4 ENE 0.0 0.1
20:50 9.1 7.4 9.8 61.0 1008.8 1.5 ENE 6.7 ENE 0.0 0.1
20:55 9.1 7.3 9.8 58.8 1008.8 4.1 E 6.4 ESE 0.0 0.1
21:00 9.2 7.4 9.7 59.8 1008.8 4.4 E 8.1 ESE 0.0 0.1
21:05 9.0 7.4 9.7 60.6 1008.8 2.3 NE 6.0 N 0.0 0.1
21:10 9.1 7.5 9.7 57.1 1008.8 6.1 NW 20.5 NNW 0.0 0.1
21:15 10.0 8.4 9.6 48.4 1008.7 14.9 NNW 30.0 NNW 0.0 0.1
21:20 10.3 8.8 9.6 47.4 1008.7 12.0 NNW 21.2 NNW 0.0 0.1
21:25 10.4 8.7 9.6 46.4 1008.8 12.0 NW 17.3 NW 0.0 0.1
21:30 10.6 8.8 9.6 45.5 1008.8 11.9 NW 16.2 NNW 0.0 0.1
21:35 10.6 8.8 9.5 45.2 1008.9 11.4 NW 15.5 NW 0.0 0.1
21:40 10.6 8.7 9.5 45.1 1009.0 10.7 NW 17.3 WNW 0.0 0.1
21:45 10.6 8.7 9.5 45.2 1009.0 12.3 NW 17.7 NW 0.0 0.1
21:50 10.5 8.6 9.5 46.3 1009.0 5.9 WNW 10.6 NW 0.0 0.1
21:55 10.3 8.2 9.5 47.1 1009.0 3.7 NW 6.4 NW 0.0 0.1
22:00 10.2 8.1 9.4 45.8 1009.1 3.1 NW 6.0 NW 0.0 0.1
22:05 10.2 8.1 9.4 46.5 1009.0 3.7 N 7.4 N 0.0 0.1
22:10 10.0 8.1 9.4 50.2 1009.1 4.8 ENE 8.1 ENE 0.0 0.1
22:15 9.6 8.0 9.3 54.0 1009.0 5.0 E 8.1 ENE 0.0 0.1
22:20 9.4 7.9 9.3 53.9 1009.0 3.0 NE 5.3 ESE 0.0 0.1
22:25 9.3 7.7 9.3 55.7 1008.9 3.7 NNE 6.7 ENE 0.0 0.1
22:30 9.4 7.7 9.3 52.3 1008.9 4.7 ENE 8.5 ENE 0.0 0.1
22:35 9.8 8.0 9.2 48.6 1008.9 3.2 S 7.4 SSE 0.0 0.1
22:40 9.8 8.1 9.2 49.7 1008.9 5.5 SE 7.1 SE 0.0 0.1
22:45 9.8 8.0 9.2 50.1 1008.9 3.3 ESE 7.1 ESE 0.0 0.1
22:50 9.7 7.9 9.2 51.5 1008.9 1.5 ESE 3.9 SE 0.0 0.1
22:55 9.5 7.7 9.2 56.1 1008.9 2.5 ESE 5.0 ESE 0.0 0.1
23:00 9.2 7.5 9.1 55.0 1009.0 4.6 E 9.2 ESE 0.0 0.1
23:05 9.1 7.4 9.1 57.3 1009.0 3.5 E 5.7 E 0.0 0.1
23:10 9.1 7.4 9.1 54.3 1009.1 6.2 ESE 9.2 ESE 0.0 0.1
23:15 9.2 7.5 9.1 53.6 1009.1 6.1 ESE 8.5 E 0.0 0.1
23:20 9.3 7.6 9.0 53.3 1009.3 8.0 ESE 11.7 SE 0.0 0.1
23:25 9.4 7.7 9.0 52.5 1009.2 10.0 ESE 13.8 ESE 0.0 0.1
23:30 9.5 7.9 9.0 52.5 1009.1 9.5 ESE 13.4 ESE 0.0 0.1
23:35 9.6 8.0 9.0 51.2 1009.1 7.7 ESE 14.5 E 0.0 0.1
Màxima 15.6 22.2 15.1 94.6 1009.3 23.6 NNW 41.3 NW 0.0 715.8
Mínima 2.5 0.9 6.9 37.0 1001.8
Total 0.0